sensor_id;sensor_type;location;lat;lon;timestamp;pressure;altitude;pressure_sealevel;temperature
48003;BMP280;33768;48.578;11.574;2022-10-29T00:00:37;97309.63;;;12.57
48003;BMP280;33768;48.578;11.574;2022-10-29T00:03:41;97300.59;;;12.62
48003;BMP280;33768;48.578;11.574;2022-10-29T00:06:47;97310.00;;;12.66
48003;BMP280;33768;48.578;11.574;2022-10-29T00:09:51;97310.31;;;12.63
48003;BMP280;33768;48.578;11.574;2022-10-29T00:12:59;97307.34;;;12.61
48003;BMP280;33768;48.578;11.574;2022-10-29T00:16:08;97316.59;;;12.58
48003;BMP280;33768;48.578;11.574;2022-10-29T00:19:13;97324.59;;;12.56
48003;BMP280;33768;48.578;11.574;2022-10-29T00:22:17;97328.13;;;12.51
48003;BMP280;33768;48.578;11.574;2022-10-29T00:25:21;97323.69;;;12.48
48003;BMP280;33768;48.578;11.574;2022-10-29T00:28:26;97329.19;;;12.48
48003;BMP280;33768;48.578;11.574;2022-10-29T00:31:30;97321.19;;;12.50
48003;BMP280;33768;48.578;11.574;2022-10-29T00:34:35;97322.66;;;12.51
48003;BMP280;33768;48.578;11.574;2022-10-29T00:37:39;97318.97;;;12.49
48003;BMP280;33768;48.578;11.574;2022-10-29T00:40:43;97319.47;;;12.47
48003;BMP280;33768;48.578;11.574;2022-10-29T00:50:31;97320.88;;;12.53
48003;BMP280;33768;48.578;11.574;2022-10-29T00:53:40;97320.81;;;12.59
48003;BMP280;33768;48.578;11.574;2022-10-29T00:56:56;97325.78;;;12.60
48003;BMP280;33768;48.578;11.574;2022-10-29T01:00:02;97323.31;;;12.57
48003;BMP280;33768;48.578;11.574;2022-10-29T01:03:07;97321.84;;;12.56
48003;BMP280;33768;48.578;11.574;2022-10-29T01:06:12;97326.13;;;12.51
48003;BMP280;33768;48.578;11.574;2022-10-29T01:09:16;97331.53;;;12.39
48003;BMP280;33768;48.578;11.574;2022-10-29T01:15:55;97334.00;;;12.18
48003;BMP280;33768;48.578;11.574;2022-10-29T01:19:11;97335.03;;;12.16
48003;BMP280;33768;48.578;11.574;2022-10-29T01:36:05;97342.38;;;12.02
48003;BMP280;33768;48.578;11.574;2022-10-29T01:39:36;97335.88;;;12.05
48003;BMP280;33768;48.578;11.574;2022-10-29T01:42:56;97332.41;;;12.05
48003;BMP280;33768;48.578;11.574;2022-10-29T01:46:22;97326.72;;;12.03
48003;BMP280;33768;48.578;11.574;2022-10-29T01:49:33;97334.69;;;12.01
48003;BMP280;33768;48.578;11.574;2022-10-29T01:52:38;97341.34;;;12.05
48003;BMP280;33768;48.578;11.574;2022-10-29T01:55:42;97342.78;;;12.12
48003;BMP280;33768;48.578;11.574;2022-10-29T01:58:49;97336.06;;;12.13
48003;BMP280;33768;48.578;11.574;2022-10-29T02:02:14;97348.47;;;12.14
48003;BMP280;33768;48.578;11.574;2022-10-29T02:05:50;97328.66;;;12.08
48003;BMP280;33768;48.578;11.574;2022-10-29T02:09:05;97324.94;;;12.05
48003;BMP280;33768;48.578;11.574;2022-10-29T02:15:32;97313.47;;;12.07
48003;BMP280;33768;48.578;11.574;2022-10-29T02:18:42;97306.75;;;12.08
48003;BMP280;33768;48.578;11.574;2022-10-29T02:21:49;97310.16;;;12.14
48003;BMP280;33768;48.578;11.574;2022-10-29T02:24:53;97313.69;;;12.09
48003;BMP280;33768;48.578;11.574;2022-10-29T02:27:58;97318.50;;;12.03
48003;BMP280;33768;48.578;11.574;2022-10-29T02:31:03;97315.81;;;11.97
48003;BMP280;33768;48.578;11.574;2022-10-29T02:34:07;97322.81;;;11.93
48003;BMP280;33768;48.578;11.574;2022-10-29T02:37:11;97313.41;;;11.88
48003;BMP280;33768;48.578;11.574;2022-10-29T02:40:15;97307.50;;;11.85
48003;BMP280;33768;48.578;11.574;2022-10-29T02:43:19;97296.75;;;11.87
48003;BMP280;33768;48.578;11.574;2022-10-29T02:46:24;97297.22;;;11.90
48003;BMP280;33768;48.578;11.574;2022-10-29T02:49:28;97287.03;;;11.91
48003;BMP280;33768;48.578;11.574;2022-10-29T02:52:32;97286.22;;;11.96
48003;BMP280;33768;48.578;11.574;2022-10-29T02:55:37;97292.44;;;11.96
48003;BMP280;33768;48.578;11.574;2022-10-29T02:58:41;97288.28;;;11.90
48003;BMP280;33768;48.578;11.574;2022-10-29T03:01:45;97290.56;;;11.86
48003;BMP280;33768;48.578;11.574;2022-10-29T03:04:49;97288.78;;;11.88
48003;BMP280;33768;48.578;11.574;2022-10-29T03:07:53;97288.78;;;11.88
48003;BMP280;33768;48.578;11.574;2022-10-29T03:10:57;97280.59;;;11.88
48003;BMP280;33768;48.578;11.574;2022-10-29T03:14:02;97259.91;;;11.93
48003;BMP280;33768;48.578;11.574;2022-10-29T03:17:06;97273.44;;;12.04
48003;BMP280;33768;48.578;11.574;2022-10-29T03:20:10;97279.72;;;11.99
48003;BMP280;33768;48.578;11.574;2022-10-29T03:23:14;97292.50;;;11.91
48003;BMP280;33768;48.578;11.574;2022-10-29T03:26:18;97304.53;;;11.83
48003;BMP280;33768;48.578;11.574;2022-10-29T03:29:23;97302.91;;;11.69
48003;BMP280;33768;48.578;11.574;2022-10-29T03:32:27;97301.25;;;11.60
48003;BMP280;33768;48.578;11.574;2022-10-29T03:35:31;97297.84;;;11.55
48003;BMP280;33768;48.578;11.574;2022-10-29T03:38:35;97286.44;;;11.51
48003;BMP280;33768;48.578;11.574;2022-10-29T03:44:42;97292.69;;;11.46
48003;BMP280;33768;48.578;11.574;2022-10-29T03:47:46;97293.91;;;11.50
48003;BMP280;33768;48.578;11.574;2022-10-29T03:50:58;97301.81;;;11.54
48003;BMP280;33768;48.578;11.574;2022-10-29T03:54:02;97307.75;;;11.57
48003;BMP280;33768;48.578;11.574;2022-10-29T03:57:07;97313.97;;;11.58
48003;BMP280;33768;48.578;11.574;2022-10-29T04:00:11;97312.19;;;11.60
48003;BMP280;33768;48.578;11.574;2022-10-29T04:03:18;97309.69;;;11.62
48003;BMP280;33768;48.578;11.574;2022-10-29T04:06:22;97301.44;;;11.68
48003;BMP280;33768;48.578;11.574;2022-10-29T04:09:27;97292.44;;;11.73
48003;BMP280;33768;48.578;11.574;2022-10-29T04:12:31;97299.69;;;11.70
48003;BMP280;33768;48.578;11.574;2022-10-29T04:15:34;97297.91;;;11.73
48003;BMP280;33768;48.578;11.574;2022-10-29T04:18:38;97298.53;;;11.84
48003;BMP280;33768;48.578;11.574;2022-10-29T04:21:42;97305.75;;;11.87
48003;BMP280;33768;48.578;11.574;2022-10-29T04:24:47;97307.72;;;11.87
48003;BMP280;33768;48.578;11.574;2022-10-29T04:27:53;97306.47;;;11.88
48003;BMP280;33768;48.578;11.574;2022-10-29T04:31:03;97303.22;;;11.89
48003;BMP280;33768;48.578;11.574;2022-10-29T04:34:07;97294.78;;;11.87
48003;BMP280;33768;48.578;11.574;2022-10-29T04:37:11;97285.31;;;11.88
48003;BMP280;33768;48.578;11.574;2022-10-29T04:40:15;97286.53;;;11.92
48003;BMP280;33768;48.578;11.574;2022-10-29T04:43:20;97281.44;;;12.02
48003;BMP280;33768;48.578;11.574;2022-10-29T04:46:24;97284.13;;;12.07
48003;BMP280;33768;48.578;11.574;2022-10-29T04:49:28;97289.81;;;12.09
48003;BMP280;33768;48.578;11.574;2022-10-29T04:52:32;97288.84;;;12.07
48003;BMP280;33768;48.578;11.574;2022-10-29T04:55:37;97284.94;;;12.02
48003;BMP280;33768;48.578;11.574;2022-10-29T04:58:42;97285.00;;;11.97
48003;BMP280;33768;48.578;11.574;2022-10-29T05:01:46;97280.53;;;11.94
48003;BMP280;33768;48.578;11.574;2022-10-29T05:04:50;97281.78;;;11.93
48003;BMP280;33768;48.578;11.574;2022-10-29T05:08:01;97278.59;;;11.89
48003;BMP280;33768;48.578;11.574;2022-10-29T05:11:06;97285.81;;;11.87
48003;BMP280;33768;48.578;11.574;2022-10-29T05:14:10;97294.31;;;11.83
48003;BMP280;33768;48.578;11.574;2022-10-29T05:17:14;97287.16;;;11.80
48003;BMP280;33768;48.578;11.574;2022-10-29T05:20:18;97290.91;;;12.01
48003;BMP280;33768;48.578;11.574;2022-10-29T05:23:22;97301.13;;;12.00
48003;BMP280;33768;48.578;11.574;2022-10-29T05:26:29;97300.47;;;11.89
48003;BMP280;33768;48.578;11.574;2022-10-29T05:29:35;97313.00;;;11.79
48003;BMP280;33768;48.578;11.574;2022-10-29T05:32:39;97304.13;;;11.73
48003;BMP280;33768;48.578;11.574;2022-10-29T05:35:43;97302.66;;;11.72
48003;BMP280;33768;48.578;11.574;2022-10-29T05:38:47;97290.00;;;11.69
48003;BMP280;33768;48.578;11.574;2022-10-29T05:41:51;97294.75;;;11.63
48003;BMP280;33768;48.578;11.574;2022-10-29T05:44:55;97301.53;;;11.57
48003;BMP280;33768;48.578;11.574;2022-10-29T05:48:01;97297.56;;;11.58
48003;BMP280;33768;48.578;11.574;2022-10-29T05:51:06;97297.25;;;11.61
48003;BMP280;33768;48.578;11.574;2022-10-29T05:54:10;97297.72;;;11.65
48003;BMP280;33768;48.578;11.574;2022-10-29T05:57:14;97302.41;;;11.70
48003;BMP280;33768;48.578;11.574;2022-10-29T06:00:18;97306.84;;;11.73
48003;BMP280;33768;48.578;11.574;2022-10-29T06:03:22;97313.81;;;11.74
48003;BMP280;33768;48.578;11.574;2022-10-29T06:06:27;97319.50;;;11.76
48003;BMP280;33768;48.578;11.574;2022-10-29T06:09:32;97320.22;;;11.77
48003;BMP280;33768;48.578;11.574;2022-10-29T06:12:36;97317.25;;;11.80
48003;BMP280;33768;48.578;11.574;2022-10-29T06:15:40;97316.44;;;11.85
48003;BMP280;33768;48.578;11.574;2022-10-29T06:18:44;97319.91;;;11.86
48003;BMP280;33768;48.578;11.574;2022-10-29T06:21:48;97327.81;;;11.89
48003;BMP280;33768;48.578;11.574;2022-10-29T06:24:52;97319.06;;;11.96
48003;BMP280;33768;48.578;11.574;2022-10-29T06:28:02;97314.56;;;11.98
48003;BMP280;33768;48.578;11.574;2022-10-29T06:31:06;97308.28;;;12.03
48003;BMP280;33768;48.578;11.574;2022-10-29T06:34:11;97307.50;;;12.08
48003;BMP280;33768;48.578;11.574;2022-10-29T06:37:16;97315.63;;;12.14
48003;BMP280;33768;48.578;11.574;2022-10-29T06:40:20;97312.63;;;12.17
48003;BMP280;33768;48.578;11.574;2022-10-29T06:43:24;97313.81;;;12.21
48003;BMP280;33768;48.578;11.574;2022-10-29T06:46:28;97318.78;;;12.23
48003;BMP280;33768;48.578;11.574;2022-10-29T06:49:33;97318.19;;;12.30
48003;BMP280;33768;48.578;11.574;2022-10-29T06:52:37;97324.66;;;12.32
48003;BMP280;33768;48.578;11.574;2022-10-29T06:55:42;97322.81;;;12.40
48003;BMP280;33768;48.578;11.574;2022-10-29T06:58:46;97312.50;;;12.46
48003;BMP280;33768;48.578;11.574;2022-10-29T07:01:50;97322.34;;;12.54
48003;BMP280;33768;48.578;11.574;2022-10-29T07:04:54;97319.56;;;12.60
48003;BMP280;33768;48.578;11.574;2022-10-29T07:07:59;97314.75;;;12.66
48003;BMP280;33768;48.578;11.574;2022-10-29T07:11:03;97320.13;;;12.77
48003;BMP280;33768;48.578;11.574;2022-10-29T07:14:08;97324.28;;;12.83
48003;BMP280;33768;48.578;11.574;2022-10-29T07:17:12;97323.16;;;12.91
48003;BMP280;33768;48.578;11.574;2022-10-29T07:20:16;97323.28;;;12.99
48003;BMP280;33768;48.578;11.574;2022-10-29T07:23:21;97324.91;;;13.07
48003;BMP280;33768;48.578;11.574;2022-10-29T07:26:25;97326.75;;;13.17
48003;BMP280;33768;48.578;11.574;2022-10-29T07:29:29;97321.41;;;13.25
48003;BMP280;33768;48.578;11.574;2022-10-29T07:32:33;97324.81;;;13.31
48003;BMP280;33768;48.578;11.574;2022-10-29T07:35:37;97323.16;;;13.41
48003;BMP280;33768;48.578;11.574;2022-10-29T07:38:42;97343.44;;;13.50
48003;BMP280;33768;48.578;11.574;2022-10-29T07:41:46;97338.38;;;13.54
48003;BMP280;33768;48.578;11.574;2022-10-29T07:44:50;97333.13;;;13.56
48003;BMP280;33768;48.578;11.574;2022-10-29T07:47:58;97333.25;;;13.64
48003;BMP280;33768;48.578;11.574;2022-10-29T07:51:03;97332.31;;;13.74
48003;BMP280;33768;48.578;11.574;2022-10-29T07:54:07;97332.13;;;13.85
48003;BMP280;33768;48.578;11.574;2022-10-29T07:57:11;97330.16;;;13.98
48003;BMP280;33768;48.578;11.574;2022-10-29T08:00:15;97333.69;;;14.11
48003;BMP280;33768;48.578;11.574;2022-10-29T08:03:20;97325.44;;;14.24
48003;BMP280;33768;48.578;11.574;2022-10-29T08:06:24;97322.47;;;14.35
48003;BMP280;33768;48.578;11.574;2022-10-29T08:09:28;97321.09;;;14.54
48003;BMP280;33768;48.578;11.574;2022-10-29T08:12:32;97326.88;;;14.76
48003;BMP280;33768;48.578;11.574;2022-10-29T08:15:36;97324.13;;;14.89
48003;BMP280;33768;48.578;11.574;2022-10-29T08:18:41;97326.28;;;15.03
48003;BMP280;33768;48.578;11.574;2022-10-29T08:21:44;97326.47;;;15.18
48003;BMP280;33768;48.578;11.574;2022-10-29T08:24:50;97320.53;;;15.27
48003;BMP280;33768;48.578;11.574;2022-10-29T08:28:01;97319.13;;;15.33
48003;BMP280;33768;48.578;11.574;2022-10-29T08:31:05;97319.91;;;15.41
48003;BMP280;33768;48.578;11.574;2022-10-29T08:34:09;97315.22;;;15.49
48003;BMP280;33768;48.578;11.574;2022-10-29T08:37:13;97321.53;;;15.57
48003;BMP280;33768;48.578;11.574;2022-10-29T08:47:11;97331.66;;;15.82
48003;BMP280;33768;48.578;11.574;2022-10-29T08:50:24;97333.22;;;15.91
48003;BMP280;33768;48.578;11.574;2022-10-29T08:53:43;97331.25;;;15.98
48003;BMP280;33768;48.578;11.574;2022-10-29T08:56:53;97341.19;;;16.01
48003;BMP280;33768;48.578;11.574;2022-10-29T09:00:05;97328.88;;;16.02
48003;BMP280;33768;48.578;11.574;2022-10-29T09:03:11;97333.19;;;16.11
48003;BMP280;33768;48.578;11.574;2022-10-29T09:10:22;97325.97;;;16.56
48003;BMP280;33768;48.578;11.574;2022-10-29T09:13:46;97319.63;;;16.75
48003;BMP280;33768;48.578;11.574;2022-10-29T09:24:03;97316.91;;;17.40
48003;BMP280;33768;48.578;11.574;2022-10-29T09:27:34;97317.88;;;17.57
48003;BMP280;33768;48.578;11.574;2022-10-29T09:34:29;97306.28;;;17.81
48003;BMP280;33768;48.578;11.574;2022-10-29T09:37:42;97299.84;;;17.93
48003;BMP280;33768;48.578;11.574;2022-10-29T09:40:47;97302.78;;;18.24
48003;BMP280;33768;48.578;11.574;2022-10-29T09:43:58;97300.88;;;18.49
48003;BMP280;33768;48.578;11.574;2022-10-29T09:47:27;97311.16;;;18.63
48003;BMP280;33768;48.578;11.574;2022-10-29T09:50:46;97301.50;;;18.94
48003;BMP280;33768;48.578;11.574;2022-10-29T09:53:54;97302.53;;;19.37
48003;BMP280;33768;48.578;11.574;2022-10-29T09:57:00;97302.28;;;19.81
48003;BMP280;33768;48.578;11.574;2022-10-29T10:00:12;97295.81;;;20.20
48003;BMP280;33768;48.578;11.574;2022-10-29T10:03:29;97300.88;;;20.71
48003;BMP280;33768;48.578;11.574;2022-10-29T10:10:31;97284.03;;;21.55
48003;BMP280;33768;48.578;11.574;2022-10-29T10:13:50;97275.84;;;21.93
48003;BMP280;33768;48.578;11.574;2022-10-29T10:16:59;97277.13;;;22.27
48003;BMP280;33768;48.578;11.574;2022-10-29T10:23:45;97273.78;;;22.47
48003;BMP280;33768;48.578;11.574;2022-10-29T10:26:50;97279.59;;;22.32
48003;BMP280;33768;48.578;11.574;2022-10-29T10:33:28;97274.22;;;22.53
48003;BMP280;33768;48.578;11.574;2022-10-29T10:36:37;97270.41;;;22.67
48003;BMP280;33768;48.578;11.574;2022-10-29T10:39:47;97262.63;;;22.28
48003;BMP280;33768;48.578;11.574;2022-10-29T10:42:54;97257.78;;;22.10
48003;BMP280;33768;48.578;11.574;2022-10-29T10:46:03;97261.69;;;21.98
48003;BMP280;33768;48.578;11.574;2022-10-29T10:49:22;97249.69;;;22.05
48003;BMP280;33768;48.578;11.574;2022-10-29T10:52:31;97243.88;;;22.10
48003;BMP280;33768;48.578;11.574;2022-10-29T10:55:36;97242.38;;;22.00
48003;BMP280;33768;48.578;11.574;2022-10-29T10:58:49;97239.56;;;21.91
48003;BMP280;33768;48.578;11.574;2022-10-29T11:01:57;97232.53;;;21.80
48003;BMP280;33768;48.578;11.574;2022-10-29T11:05:18;97234.22;;;21.57
48003;BMP280;33768;48.578;11.574;2022-10-29T11:08:29;97235.81;;;21.60
48003;BMP280;33768;48.578;11.574;2022-10-29T11:11:46;97231.28;;;21.55
48003;BMP280;33768;48.578;11.574;2022-10-29T11:14:56;97223.94;;;21.50
48003;BMP280;33768;48.578;11.574;2022-10-29T11:18:10;97228.91;;;21.52
48003;BMP280;33768;48.578;11.574;2022-10-29T11:25:15;97224.94;;;21.45
48003;BMP280;33768;48.578;11.574;2022-10-29T11:28:30;97214.09;;;21.40
48003;BMP280;33768;48.578;11.574;2022-10-29T11:31:40;97204.28;;;21.39
48003;BMP280;33768;48.578;11.574;2022-10-29T11:41:20;97190.56;;;21.41
48003;BMP280;33768;48.578;11.574;2022-10-29T11:44:28;97185.44;;;21.37
48003;BMP280;33768;48.578;11.574;2022-10-29T11:48:05;97184.84;;;21.39
48003;BMP280;33768;48.578;11.574;2022-10-29T11:58:24;97173.50;;;21.54
48003;BMP280;33768;48.578;11.574;2022-10-29T12:02:12;97168.72;;;21.64
48003;BMP280;33768;48.578;11.574;2022-10-29T12:05:43;97161.13;;;21.73
48003;BMP280;33768;48.578;11.574;2022-10-29T12:12:33;97168.50;;;22.06
48003;BMP280;33768;48.578;11.574;2022-10-29T12:18:52;97157.69;;;22.29
48003;BMP280;33768;48.578;11.574;2022-10-29T12:25:36;97150.66;;;22.47
48003;BMP280;33768;48.578;11.574;2022-10-29T12:39:04;97133.56;;;23.68
48003;BMP280;33768;48.578;11.574;2022-10-29T12:42:20;97134.69;;;23.95
48003;BMP280;33768;48.578;11.574;2022-10-29T12:45:46;97126.28;;;24.25
48003;BMP280;33768;48.578;11.574;2022-10-29T12:52:04;97121.78;;;24.64
48003;BMP280;33768;48.578;11.574;2022-10-29T12:55:13;97112.47;;;24.71
48003;BMP280;33768;48.578;11.574;2022-10-29T12:58:48;97108.66;;;24.55
48003;BMP280;33768;48.578;11.574;2022-10-29T13:01:53;97111.75;;;24.70
48003;BMP280;33768;48.578;11.574;2022-10-29T13:11:43;97103.00;;;24.76
48003;BMP280;33768;48.578;11.574;2022-10-29T13:31:43;97094.91;;;24.16
48003;BMP280;33768;48.578;11.574;2022-10-29T13:34:54;97087.56;;;23.99
48003;BMP280;33768;48.578;11.574;2022-10-29T13:38:10;97098.66;;;23.88
48003;BMP280;33768;48.578;11.574;2022-10-29T13:44:22;97087.19;;;23.52
48003;BMP280;33768;48.578;11.574;2022-10-29T13:47:28;97078.63;;;23.29
48003;BMP280;33768;48.578;11.574;2022-10-29T13:50:33;97085.28;;;23.15
48003;BMP280;33768;48.578;11.574;2022-10-29T13:53:42;97074.09;;;23.04
48003;BMP280;33768;48.578;11.574;2022-10-29T13:56:57;97082.63;;;22.87
48003;BMP280;33768;48.578;11.574;2022-10-29T14:03:40;97073.63;;;22.59
48003;BMP280;33768;48.578;11.574;2022-10-29T14:06:50;97077.75;;;22.48
48003;BMP280;33768;48.578;11.574;2022-10-29T14:10:04;97069.13;;;22.44
48003;BMP280;33768;48.578;11.574;2022-10-29T14:16:28;97068.00;;;22.28
48003;BMP280;33768;48.578;11.574;2022-10-29T14:19:32;97066.25;;;22.24
48003;BMP280;33768;48.578;11.574;2022-10-29T14:22:37;97070.34;;;22.13
48003;BMP280;33768;48.578;11.574;2022-10-29T14:25:42;97064.03;;;22.03
48003;BMP280;33768;48.578;11.574;2022-10-29T14:28:46;97054.97;;;21.94
48003;BMP280;33768;48.578;11.574;2022-10-29T14:35:12;97062.16;;;21.78
48003;BMP280;33768;48.578;11.574;2022-10-29T14:38:19;97065.22;;;21.72
48003;BMP280;33768;48.578;11.574;2022-10-29T14:41:26;97058.03;;;21.69
48003;BMP280;33768;48.578;11.574;2022-10-29T14:44:32;97061.69;;;21.63
48003;BMP280;33768;48.578;11.574;2022-10-29T14:47:37;97062.41;;;21.54
48003;BMP280;33768;48.578;11.574;2022-10-29T14:50:59;97064.16;;;21.40
48003;BMP280;33768;48.578;11.574;2022-10-29T14:54:05;97058.69;;;21.23
48003;BMP280;33768;48.578;11.574;2022-10-29T14:57:16;97060.09;;;21.05
48003;BMP280;33768;48.578;11.574;2022-10-29T15:00:26;97056.50;;;20.86
48003;BMP280;33768;48.578;11.574;2022-10-29T15:03:32;97050.16;;;20.67
48003;BMP280;33768;48.578;11.574;2022-10-29T15:06:37;97054.84;;;20.48
48003;BMP280;33768;48.578;11.574;2022-10-29T15:09:44;97051.09;;;20.27
48003;BMP280;33768;48.578;11.574;2022-10-29T15:12:50;97062.47;;;20.05
48003;BMP280;33768;48.578;11.574;2022-10-29T15:16:03;97065.50;;;19.82
48003;BMP280;33768;48.578;11.574;2022-10-29T15:19:12;97072.84;;;19.71
48003;BMP280;33768;48.578;11.574;2022-10-29T15:22:23;97064.09;;;19.57
48003;BMP280;33768;48.578;11.574;2022-10-29T15:25:33;97070.28;;;19.48
48003;BMP280;33768;48.578;11.574;2022-10-29T15:28:41;97061.41;;;19.33
48003;BMP280;33768;48.578;11.574;2022-10-29T15:31:46;97069.84;;;19.18
48003;BMP280;33768;48.578;11.574;2022-10-29T15:34:57;97065.91;;;19.05
48003;BMP280;33768;48.578;11.574;2022-10-29T15:38:02;97062.47;;;18.89
48003;BMP280;33768;48.578;11.574;2022-10-29T15:44:35;97075.72;;;18.43
48003;BMP280;33768;48.578;11.574;2022-10-29T15:51:08;97077.78;;;17.96
48003;BMP280;33768;48.578;11.574;2022-10-29T15:54:12;97078.94;;;17.78
48003;BMP280;33768;48.578;11.574;2022-10-29T15:57:16;97077.13;;;17.66
48003;BMP280;33768;48.578;11.574;2022-10-29T16:00:22;97081.75;;;17.56
48003;BMP280;33768;48.578;11.574;2022-10-29T16:03:26;97076.31;;;17.41
48003;BMP280;33768;48.578;11.574;2022-10-29T16:06:31;97078.50;;;17.28
48003;BMP280;33768;48.578;11.574;2022-10-29T16:09:35;97071.00;;;17.14
48003;BMP280;33768;48.578;11.574;2022-10-29T16:12:40;97069.88;;;17.02
48003;BMP280;33768;48.578;11.574;2022-10-29T16:15:45;97071.72;;;16.92
48003;BMP280;33768;48.578;11.574;2022-10-29T16:18:49;97076.13;;;16.80
48003;BMP280;33768;48.578;11.574;2022-10-29T16:21:54;97074.25;;;16.68
48003;BMP280;33768;48.578;11.574;2022-10-29T16:24:58;97076.47;;;16.55
48003;BMP280;33768;48.578;11.574;2022-10-29T16:28:03;97082.31;;;16.44
48003;BMP280;33768;48.578;11.574;2022-10-29T16:31:15;97085.44;;;16.33
48003;BMP280;33768;48.578;11.574;2022-10-29T16:34:22;97078.22;;;16.23
48003;BMP280;33768;48.578;11.574;2022-10-29T16:37:26;97071.97;;;16.15
48003;BMP280;33768;48.578;11.574;2022-10-29T16:40:31;97074.66;;;16.07
48003;BMP280;33768;48.578;11.574;2022-10-29T16:43:35;97081.97;;;15.97
48003;BMP280;33768;48.578;11.574;2022-10-29T16:46:39;97075.53;;;15.88
48003;BMP280;33768;48.578;11.574;2022-10-29T16:49:43;97071.97;;;15.80
48003;BMP280;33768;48.578;11.574;2022-10-29T16:52:54;97079.47;;;15.72
48003;BMP280;33768;48.578;11.574;2022-10-29T16:55:58;97083.84;;;15.60
48003;BMP280;33768;48.578;11.574;2022-10-29T16:59:03;97090.38;;;15.50
48003;BMP280;33768;48.578;11.574;2022-10-29T17:02:11;97090.66;;;15.39
48003;BMP280;33768;48.578;11.574;2022-10-29T17:05:16;97094.66;;;15.31
48003;BMP280;33768;48.578;11.574;2022-10-29T17:08:20;97086.00;;;15.27
48003;BMP280;33768;48.578;11.574;2022-10-29T17:11:24;97085.63;;;15.23
48003;BMP280;33768;48.578;11.574;2022-10-29T17:14:28;97086.50;;;15.18
48003;BMP280;33768;48.578;11.574;2022-10-29T17:17:32;97090.13;;;15.13
48003;BMP280;33768;48.578;11.574;2022-10-29T17:20:37;97095.97;;;15.09
48003;BMP280;33768;48.578;11.574;2022-10-29T17:23:41;97088.59;;;15.04
48003;BMP280;33768;48.578;11.574;2022-10-29T17:26:45;97099.16;;;15.01
48003;BMP280;33768;48.578;11.574;2022-10-29T17:29:49;97092.53;;;14.96
48003;BMP280;33768;48.578;11.574;2022-10-29T17:32:54;97096.88;;;14.92
48003;BMP280;33768;48.578;11.574;2022-10-29T17:36:02;97092.81;;;14.85
48003;BMP280;33768;48.578;11.574;2022-10-29T17:39:07;97092.75;;;14.78
48003;BMP280;33768;48.578;11.574;2022-10-29T17:42:11;97095.28;;;14.76
48003;BMP280;33768;48.578;11.574;2022-10-29T17:45:15;97092.88;;;14.72
48003;BMP280;33768;48.578;11.574;2022-10-29T17:48:23;97094.50;;;14.68
48003;BMP280;33768;48.578;11.574;2022-10-29T17:51:27;97101.28;;;14.67
48003;BMP280;33768;48.578;11.574;2022-10-29T17:54:31;97100.53;;;14.67
48003;BMP280;33768;48.578;11.574;2022-10-29T17:57:35;97096.09;;;14.64
48003;BMP280;33768;48.578;11.574;2022-10-29T18:00:39;97097.72;;;14.59
48003;BMP280;33768;48.578;11.574;2022-10-29T18:03:44;97100.25;;;14.57
48003;BMP280;33768;48.578;11.574;2022-10-29T18:06:48;97102.28;;;14.57
48003;BMP280;33768;48.578;11.574;2022-10-29T18:09:52;97099.31;;;14.55
48003;BMP280;33768;48.578;11.574;2022-10-29T18:12:56;97094.91;;;14.52
48003;BMP280;33768;48.578;11.574;2022-10-29T18:16:00;97104.22;;;14.49
48003;BMP280;33768;48.578;11.574;2022-10-29T18:19:05;97094.63;;;14.42
48003;BMP280;33768;48.578;11.574;2022-10-29T18:22:09;97090.00;;;14.38
48003;BMP280;33768;48.578;11.574;2022-10-29T18:25:13;97093.38;;;14.31
48003;BMP280;33768;48.578;11.574;2022-10-29T18:28:17;97093.72;;;14.27
48003;BMP280;33768;48.578;11.574;2022-10-29T18:31:24;97090.56;;;14.23
48003;BMP280;33768;48.578;11.574;2022-10-29T18:34:28;97091.84;;;14.22
48003;BMP280;33768;48.578;11.574;2022-10-29T18:37:34;97086.47;;;14.17
48003;BMP280;33768;48.578;11.574;2022-10-29T18:40:38;97089.34;;;14.11
48003;BMP280;33768;48.578;11.574;2022-10-29T18:43:42;97089.88;;;14.10
48003;BMP280;33768;48.578;11.574;2022-10-29T18:46:47;97085.84;;;14.11
48003;BMP280;33768;48.578;11.574;2022-10-29T18:49:50;97094.63;;;14.09
48003;BMP280;33768;48.578;11.574;2022-10-29T18:52:55;97081.44;;;14.08
48003;BMP280;33768;48.578;11.574;2022-10-29T18:55:59;97091.69;;;14.07
48003;BMP280;33768;48.578;11.574;2022-10-29T18:59:04;97084.91;;;14.08
48003;BMP280;33768;48.578;11.574;2022-10-29T19:02:10;97086.59;;;14.11
48003;BMP280;33768;48.578;11.574;2022-10-29T19:05:14;97090.59;;;14.10
48003;BMP280;33768;48.578;11.574;2022-10-29T19:08:18;97087.66;;;14.08
48003;BMP280;33768;48.578;11.574;2022-10-29T19:11:24;97091.69;;;14.07
48003;BMP280;33768;48.578;11.574;2022-10-29T19:14:28;97085.97;;;14.06
48003;BMP280;33768;48.578;11.574;2022-10-29T19:17:32;97089.78;;;14.03
48003;BMP280;33768;48.578;11.574;2022-10-29T19:20:37;97079.66;;;13.98
48003;BMP280;33768;48.578;11.574;2022-10-29T19:23:41;97088.63;;;13.98
48003;BMP280;33768;48.578;11.574;2022-10-29T19:26:45;97084.91;;;13.96
48003;BMP280;33768;48.578;11.574;2022-10-29T19:29:49;97087.47;;;13.94
48003;BMP280;33768;48.578;11.574;2022-10-29T19:32:53;97088.31;;;13.89
48003;BMP280;33768;48.578;11.574;2022-10-29T19:35:58;97095.41;;;13.84
48003;BMP280;33768;48.578;11.574;2022-10-29T19:39:03;97093.19;;;13.83
48003;BMP280;33768;48.578;11.574;2022-10-29T19:42:07;97085.16;;;13.85
48003;BMP280;33768;48.578;11.574;2022-10-29T19:45:11;97082.41;;;13.98
48003;BMP280;33768;48.578;11.574;2022-10-29T19:48:16;97087.03;;;14.03
48003;BMP280;33768;48.578;11.574;2022-10-29T19:51:21;97080.41;;;13.98
48003;BMP280;33768;48.578;11.574;2022-10-29T19:54:25;97071.19;;;14.08
48003;BMP280;33768;48.578;11.574;2022-10-29T19:57:30;97074.63;;;14.22
48003;BMP280;33768;48.578;11.574;2022-10-29T20:00:35;97076.59;;;14.34
48003;BMP280;33768;48.578;11.574;2022-10-29T20:03:39;97066.41;;;14.42
48003;BMP280;33768;48.578;11.574;2022-10-29T20:06:43;97068.34;;;14.34
48003;BMP280;33768;48.578;11.574;2022-10-29T20:09:47;97069.88;;;14.22